sensor_id;sensor_type;location;lat;lon;timestamp;temperature;humidity
56538;DHT22;42435;53.292;6.000;2023-06-05T00:01:59;13.50;71.80
56538;DHT22;42435;53.292;6.000;2023-06-05T00:04:24;13.50;71.80
56538;DHT22;42435;53.292;6.000;2023-06-05T00:06:50;13.50;71.70
56538;DHT22;42435;53.292;6.000;2023-06-05T00:09:16;13.50;71.60
56538;DHT22;42435;53.292;6.000;2023-06-05T00:11:42;13.50;71.40
56538;DHT22;42435;53.292;6.000;2023-06-05T00:14:07;13.50;71.30
56538;DHT22;42435;53.292;6.000;2023-06-05T00:16:34;13.40;71.20
56538;DHT22;42435;53.292;6.000;2023-06-05T00:19:00;13.40;71.10
56538;DHT22;42435;53.292;6.000;2023-06-05T00:21:26;13.40;71.10
56538;DHT22;42435;53.292;6.000;2023-06-05T00:23:52;13.40;71.10
56538;DHT22;42435;53.292;6.000;2023-06-05T00:26:17;13.40;71.00
56538;DHT22;42435;53.292;6.000;2023-06-05T00:28:43;13.40;70.90
56538;DHT22;42435;53.292;6.000;2023-06-05T00:31:08;13.30;70.90
56538;DHT22;42435;53.292;6.000;2023-06-05T00:33:34;13.30;71.00
56538;DHT22;42435;53.292;6.000;2023-06-05T00:36:00;13.30;71.00
56538;DHT22;42435;53.292;6.000;2023-06-05T00:38:25;13.30;71.00
56538;DHT22;42435;53.292;6.000;2023-06-05T00:40:54;13.30;70.90
56538;DHT22;42435;53.292;6.000;2023-06-05T00:43:20;13.30;70.90
56538;DHT22;42435;53.292;6.000;2023-06-05T00:45:45;13.30;71.00
56538;DHT22;42435;53.292;6.000;2023-06-05T00:48:11;13.30;71.10
56538;DHT22;42435;53.292;6.000;2023-06-05T00:50:37;13.30;71.10
56538;DHT22;42435;53.292;6.000;2023-06-05T00:53:03;13.30;71.10
56538;DHT22;42435;53.292;6.000;2023-06-05T00:55:31;13.30;71.10
56538;DHT22;42435;53.292;6.000;2023-06-05T00:57:57;13.30;71.10
56538;DHT22;42435;53.292;6.000;2023-06-05T01:00:22;13.30;71.10
56538;DHT22;42435;53.292;6.000;2023-06-05T01:02:49;13.30;71.10
56538;DHT22;42435;53.292;6.000;2023-06-05T01:05:19;13.30;71.10
56538;DHT22;42435;53.292;6.000;2023-06-05T01:07:45;13.30;71.10
56538;DHT22;42435;53.292;6.000;2023-06-05T01:10:13;13.30;71.10
56538;DHT22;42435;53.292;6.000;2023-06-05T01:12:49;13.30;71.10
56538;DHT22;42435;53.292;6.000;2023-06-05T01:15:17;13.30;71.10
56538;DHT22;42435;53.292;6.000;2023-06-05T01:17:44;13.30;70.90
56538;DHT22;42435;53.292;6.000;2023-06-05T01:20:13;13.40;71.00
56538;DHT22;42435;53.292;6.000;2023-06-05T01:22:39;13.30;71.00
56538;DHT22;42435;53.292;6.000;2023-06-05T01:25:08;13.30;71.00
56538;DHT22;42435;53.292;6.000;2023-06-05T01:30:10;13.40;71.00
56538;DHT22;42435;53.292;6.000;2023-06-05T01:33:07;13.40;70.90
56538;DHT22;42435;53.292;6.000;2023-06-05T01:35:38;13.40;70.90
56538;DHT22;42435;53.292;6.000;2023-06-05T01:38:05;13.40;70.90
56538;DHT22;42435;53.292;6.000;2023-06-05T01:40:32;13.40;71.00
56538;DHT22;42435;53.292;6.000;2023-06-05T01:42:59;13.40;71.10
56538;DHT22;42435;53.292;6.000;2023-06-05T01:45:26;13.40;71.00
56538;DHT22;42435;53.292;6.000;2023-06-05T01:47:52;13.40;71.00
56538;DHT22;42435;53.292;6.000;2023-06-05T01:50:19;13.40;71.00
56538;DHT22;42435;53.292;6.000;2023-06-05T01:52:45;13.40;71.00
56538;DHT22;42435;53.292;6.000;2023-06-05T01:55:17;13.50;71.10
56538;DHT22;42435;53.292;6.000;2023-06-05T01:57:44;13.40;71.20
56538;DHT22;42435;53.292;6.000;2023-06-05T02:00:10;13.50;71.10
56538;DHT22;42435;53.292;6.000;2023-06-05T02:02:56;13.50;71.10
56538;DHT22;42435;53.292;6.000;2023-06-05T02:05:22;13.50;71.30
56538;DHT22;42435;53.292;6.000;2023-06-05T02:07:49;13.50;71.20
56538;DHT22;42435;53.292;6.000;2023-06-05T02:10:19;13.50;71.20
56538;DHT22;42435;53.292;6.000;2023-06-05T02:12:45;13.50;71.30
56538;DHT22;42435;53.292;6.000;2023-06-05T02:15:11;13.50;71.40
56538;DHT22;42435;53.292;6.000;2023-06-05T02:17:42;13.50;71.30
56538;DHT22;42435;53.292;6.000;2023-06-05T02:20:13;13.50;71.50
56538;DHT22;42435;53.292;6.000;2023-06-05T02:22:41;13.60;71.60
56538;DHT22;42435;53.292;6.000;2023-06-05T02:25:07;13.60;71.50
56538;DHT22;42435;53.292;6.000;2023-06-05T02:27:33;13.60;71.50
56538;DHT22;42435;53.292;6.000;2023-06-05T02:29:59;13.60;71.40
56538;DHT22;42435;53.292;6.000;2023-06-05T02:32:24;13.60;71.30
56538;DHT22;42435;53.292;6.000;2023-06-05T02:34:55;13.60;71.20
56538;DHT22;42435;53.292;6.000;2023-06-05T02:37:25;13.60;71.00
56538;DHT22;42435;53.292;6.000;2023-06-05T02:39:52;13.60;71.00
56538;DHT22;42435;53.292;6.000;2023-06-05T02:42:18;13.60;70.90
56538;DHT22;42435;53.292;6.000;2023-06-05T02:44:45;13.50;70.90
56538;DHT22;42435;53.292;6.000;2023-06-05T02:47:11;13.50;71.00
56538;DHT22;42435;53.292;6.000;2023-06-05T02:49:37;13.50;71.00
56538;DHT22;42435;53.292;6.000;2023-06-05T02:52:04;13.50;70.90
56538;DHT22;42435;53.292;6.000;2023-06-05T02:54:29;13.50;70.80
56538;DHT22;42435;53.292;6.000;2023-06-05T02:56:55;13.50;70.70
56538;DHT22;42435;53.292;6.000;2023-06-05T02:59:22;13.50;70.80
56538;DHT22;42435;53.292;6.000;2023-06-05T03:01:51;13.50;70.90
56538;DHT22;42435;53.292;6.000;2023-06-05T03:04:20;13.50;70.90
56538;DHT22;42435;53.292;6.000;2023-06-05T03:06:50;13.50;70.80
56538;DHT22;42435;53.292;6.000;2023-06-05T03:09:16;13.40;70.90
56538;DHT22;42435;53.292;6.000;2023-06-05T03:11:43;13.40;70.90
56538;DHT22;42435;53.292;6.000;2023-06-05T03:14:09;13.40;70.80
56538;DHT22;42435;53.292;6.000;2023-06-05T03:16:34;13.40;70.70
56538;DHT22;42435;53.292;6.000;2023-06-05T03:19:07;13.40;70.60
56538;DHT22;42435;53.292;6.000;2023-06-05T03:21:35;13.30;70.70
56538;DHT22;42435;53.292;6.000;2023-06-05T03:24:01;13.30;70.70
56538;DHT22;42435;53.292;6.000;2023-06-05T03:26:27;13.30;70.60
56538;DHT22;42435;53.292;6.000;2023-06-05T03:28:52;13.30;70.80
56538;DHT22;42435;53.292;6.000;2023-06-05T03:31:18;13.40;70.90
56538;DHT22;42435;53.292;6.000;2023-06-05T03:33:44;13.30;70.80
56538;DHT22;42435;53.292;6.000;2023-06-05T03:36:10;13.30;70.70
56538;DHT22;42435;53.292;6.000;2023-06-05T03:38:35;13.40;70.70
56538;DHT22;42435;53.292;6.000;2023-06-05T03:41:01;13.30;70.70
56538;DHT22;42435;53.292;6.000;2023-06-05T03:43:27;13.40;70.80
56538;DHT22;42435;53.292;6.000;2023-06-05T03:45:52;13.30;70.90
56538;DHT22;42435;53.292;6.000;2023-06-05T03:48:18;13.30;70.70
56538;DHT22;42435;53.292;6.000;2023-06-05T03:50:47;13.30;70.60
56538;DHT22;42435;53.292;6.000;2023-06-05T03:53:19;13.30;70.40
56538;DHT22;42435;53.292;6.000;2023-06-05T03:55:45;13.20;70.40
56538;DHT22;42435;53.292;6.000;2023-06-05T03:58:13;13.30;70.40
56538;DHT22;42435;53.292;6.000;2023-06-05T04:00:40;13.30;70.30
56538;DHT22;42435;53.292;6.000;2023-06-05T04:03:06;13.20;70.30
56538;DHT22;42435;53.292;6.000;2023-06-05T04:05:34;13.30;70.30
56538;DHT22;42435;53.292;6.000;2023-06-05T04:07:59;13.20;70.30
56538;DHT22;42435;53.292;6.000;2023-06-05T04:10:25;13.20;70.30
56538;DHT22;42435;53.292;6.000;2023-06-05T04:12:53;13.20;70.40
56538;DHT22;42435;53.292;6.000;2023-06-05T04:15:19;13.30;70.40
56538;DHT22;42435;53.292;6.000;2023-06-05T04:17:45;13.30;70.50
56538;DHT22;42435;53.292;6.000;2023-06-05T04:20:10;13.30;70.50
56538;DHT22;42435;53.292;6.000;2023-06-05T04:22:40;13.40;70.50
56538;DHT22;42435;53.292;6.000;2023-06-05T04:25:06;13.40;70.30
56538;DHT22;42435;53.292;6.000;2023-06-05T04:27:32;13.40;70.30
56538;DHT22;42435;53.292;6.000;2023-06-05T04:29:57;13.50;70.20
56538;DHT22;42435;53.292;6.000;2023-06-05T04:32:23;13.50;70.20
56538;DHT22;42435;53.292;6.000;2023-06-05T04:34:48;13.50;70.00
56538;DHT22;42435;53.292;6.000;2023-06-05T04:37:14;13.50;69.80
56538;DHT22;42435;53.292;6.000;2023-06-05T04:39:39;13.60;69.60
56538;DHT22;42435;53.292;6.000;2023-06-05T04:42:05;13.60;69.40
56538;DHT22;42435;53.292;6.000;2023-06-05T04:44:32;13.70;69.20
56538;DHT22;42435;53.292;6.000;2023-06-05T04:46:58;13.70;69.10
56538;DHT22;42435;53.292;6.000;2023-06-05T04:49:23;13.70;69.20
56538;DHT22;42435;53.292;6.000;2023-06-05T04:51:49;13.80;69.20
56538;DHT22;42435;53.292;6.000;2023-06-05T04:54:14;13.80;68.90
56538;DHT22;42435;53.292;6.000;2023-06-05T04:56:40;13.80;68.70
56538;DHT22;42435;53.292;6.000;2023-06-05T04:59:06;13.90;68.70
56538;DHT22;42435;53.292;6.000;2023-06-05T05:01:32;13.80;68.50
56538;DHT22;42435;53.292;6.000;2023-06-05T05:03:58;13.80;68.40
56538;DHT22;42435;53.292;6.000;2023-06-05T05:06:24;13.90;68.50
56538;DHT22;42435;53.292;6.000;2023-06-05T05:08:50;13.80;68.50
56538;DHT22;42435;53.292;6.000;2023-06-05T05:11:17;13.90;68.60
56538;DHT22;42435;53.292;6.000;2023-06-05T05:13:43;13.90;68.50
56538;DHT22;42435;53.292;6.000;2023-06-05T05:16:09;14.00;68.30
56538;DHT22;42435;53.292;6.000;2023-06-05T05:18:39;13.90;68.20
56538;DHT22;42435;53.292;6.000;2023-06-05T05:21:06;14.00;68.10
56538;DHT22;42435;53.292;6.000;2023-06-05T05:23:32;14.00;68.00
56538;DHT22;42435;53.292;6.000;2023-06-05T05:25:59;14.00;68.10
56538;DHT22;42435;53.292;6.000;2023-06-05T05:28:24;14.10;68.20
56538;DHT22;42435;53.292;6.000;2023-06-05T05:30:51;14.10;68.00
56538;DHT22;42435;53.292;6.000;2023-06-05T05:33:17;14.20;67.80
56538;DHT22;42435;53.292;6.000;2023-06-05T05:35:44;14.20;67.80
56538;DHT22;42435;53.292;6.000;2023-06-05T05:38:09;14.30;67.50
56538;DHT22;42435;53.292;6.000;2023-06-05T05:40:35;14.40;67.30
56538;DHT22;42435;53.292;6.000;2023-06-05T05:43:00;14.40;67.50
56538;DHT22;42435;53.292;6.000;2023-06-05T05:45:26;14.40;67.50
56538;DHT22;42435;53.292;6.000;2023-06-05T05:47:52;14.40;67.30
56538;DHT22;42435;53.292;6.000;2023-06-05T05:50:17;14.50;67.10
56538;DHT22;42435;53.292;6.000;2023-06-05T05:52:43;14.50;67.10
56538;DHT22;42435;53.292;6.000;2023-06-05T05:55:10;14.60;67.30
56538;DHT22;42435;53.292;6.000;2023-06-05T05:57:36;14.60;67.40
56538;DHT22;42435;53.292;6.000;2023-06-05T06:00:03;14.70;67.10
56538;DHT22;42435;53.292;6.000;2023-06-05T06:02:33;14.70;67.20
56538;DHT22;42435;53.292;6.000;2023-06-05T06:04:58;14.80;67.20
56538;DHT22;42435;53.292;6.000;2023-06-05T06:07:24;14.80;67.10
56538;DHT22;42435;53.292;6.000;2023-06-05T06:09:53;14.80;67.00
56538;DHT22;42435;53.292;6.000;2023-06-05T06:12:19;14.90;67.10
56538;DHT22;42435;53.292;6.000;2023-06-05T06:14:45;14.80;67.00
56538;DHT22;42435;53.292;6.000;2023-06-05T06:17:13;14.80;67.00
56538;DHT22;42435;53.292;6.000;2023-06-05T06:19:39;14.80;66.90
56538;DHT22;42435;53.292;6.000;2023-06-05T06:22:04;14.80;66.70
56538;DHT22;42435;53.292;6.000;2023-06-05T06:24:39;14.80;66.80
56538;DHT22;42435;53.292;6.000;2023-06-05T06:27:06;14.80;66.90
56538;DHT22;42435;53.292;6.000;2023-06-05T06:29:32;14.80;66.80
56538;DHT22;42435;53.292;6.000;2023-06-05T06:31:58;14.90;66.60
56538;DHT22;42435;53.292;6.000;2023-06-05T06:34:23;14.90;66.50
56538;DHT22;42435;53.292;6.000;2023-06-05T06:36:50;14.90;66.40
56538;DHT22;42435;53.292;6.000;2023-06-05T06:39:16;14.90;66.30
56538;DHT22;42435;53.292;6.000;2023-06-05T06:41:44;15.00;66.20
56538;DHT22;42435;53.292;6.000;2023-06-05T06:44:10;15.00;66.00
56538;DHT22;42435;53.292;6.000;2023-06-05T06:46:35;15.00;66.00
56538;DHT22;42435;53.292;6.000;2023-06-05T06:49:02;15.10;65.90
56538;DHT22;42435;53.292;6.000;2023-06-05T06:51:27;15.10;66.00
56538;DHT22;42435;53.292;6.000;2023-06-05T06:53:53;15.10;65.80
56538;DHT22;42435;53.292;6.000;2023-06-05T06:56:19;15.20;65.70
56538;DHT22;42435;53.292;6.000;2023-06-05T06:58:45;15.20;65.50
56538;DHT22;42435;53.292;6.000;2023-06-05T07:01:11;15.30;65.20
56538;DHT22;42435;53.292;6.000;2023-06-05T07:03:38;15.30;65.10
56538;DHT22;42435;53.292;6.000;2023-06-05T07:06:06;15.30;64.70
56538;DHT22;42435;53.292;6.000;2023-06-05T07:08:32;15.40;64.50
56538;DHT22;42435;53.292;6.000;2023-06-05T07:10:58;15.50;64.60
56538;DHT22;42435;53.292;6.000;2023-06-05T07:13:23;15.50;64.80
56538;DHT22;42435;53.292;6.000;2023-06-05T07:15:49;15.60;64.60
56538;DHT22;42435;53.292;6.000;2023-06-05T07:18:17;15.70;64.30
56538;DHT22;42435;53.292;6.000;2023-06-05T07:20:43;15.70;64.10
56538;DHT22;42435;53.292;6.000;2023-06-05T07:23:09;15.80;64.20
56538;DHT22;42435;53.292;6.000;2023-06-05T07:25:34;15.90;64.20
56538;DHT22;42435;53.292;6.000;2023-06-05T07:28:00;15.90;64.10
56538;DHT22;42435;53.292;6.000;2023-06-05T07:30:29;16.00;64.20
56538;DHT22;42435;53.292;6.000;2023-06-05T07:32:54;16.00;64.00
56538;DHT22;42435;53.292;6.000;2023-06-05T07:35:20;16.10;63.70
56538;DHT22;42435;53.292;6.000;2023-06-05T07:37:46;16.10;63.60
56538;DHT22;42435;53.292;6.000;2023-06-05T07:40:12;16.10;63.60
56538;DHT22;42435;53.292;6.000;2023-06-05T07:42:38;16.20;63.60
56538;DHT22;42435;53.292;6.000;2023-06-05T07:45:04;16.20;63.30
56538;DHT22;42435;53.292;6.000;2023-06-05T07:47:29;16.20;63.20
56538;DHT22;42435;53.292;6.000;2023-06-05T07:49:59;16.30;62.70
56538;DHT22;42435;53.292;6.000;2023-06-05T07:52:26;16.30;62.80
56538;DHT22;42435;53.292;6.000;2023-06-05T07:54:52;16.40;63.10
56538;DHT22;42435;53.292;6.000;2023-06-05T07:57:18;16.30;62.70
56538;DHT22;42435;53.292;6.000;2023-06-05T07:59:43;16.40;62.40
56538;DHT22;42435;53.292;6.000;2023-06-05T08:02:09;16.40;62.70
56538;DHT22;42435;53.292;6.000;2023-06-05T08:04:34;16.40;62.80
56538;DHT22;42435;53.292;6.000;2023-06-05T08:07:01;16.50;62.70
56538;DHT22;42435;53.292;6.000;2023-06-05T08:09:26;16.50;62.90
56538;DHT22;42435;53.292;6.000;2023-06-05T08:11:52;16.50;62.60
56538;DHT22;42435;53.292;6.000;2023-06-05T08:14:17;16.60;62.40
56538;DHT22;42435;53.292;6.000;2023-06-05T08:16:43;16.60;62.40
56538;DHT22;42435;53.292;6.000;2023-06-05T08:19:09;16.70;62.10
56538;DHT22;42435;53.292;6.000;2023-06-05T08:21:34;16.70;61.90
56538;DHT22;42435;53.292;6.000;2023-06-05T08:24:02;16.60;62.10
56538;DHT22;42435;53.292;6.000;2023-06-05T08:26:29;16.60;62.10
56538;DHT22;42435;53.292;6.000;2023-06-05T08:28:55;16.60;62.30
56538;DHT22;42435;53.292;6.000;2023-06-05T08:31:20;16.60;62.30
56538;DHT22;42435;53.292;6.000;2023-06-05T08:33:46;16.70;62.30
56538;DHT22;42435;53.292;6.000;2023-06-05T08:36:11;16.70;62.30
56538;DHT22;42435;53.292;6.000;2023-06-05T08:38:37;16.70;62.10
56538;DHT22;42435;53.292;6.000;2023-06-05T08:41:04;16.80;62.10
56538;DHT22;42435;53.292;6.000;2023-06-05T08:43:37;16.90;62.10
56538;DHT22;42435;53.292;6.000;2023-06-05T08:46:08;17.00;61.90
56538;DHT22;42435;53.292;6.000;2023-06-05T08:48:41;17.10;62.00
56538;DHT22;42435;53.292;6.000;2023-06-05T08:51:07;17.20;61.60
56538;DHT22;42435;53.292;6.000;2023-06-05T08:53:35;17.30;61.20
56538;DHT22;42435;53.292;6.000;2023-06-05T08:56:01;17.40;61.00
56538;DHT22;42435;53.292;6.000;2023-06-05T08:58:27;17.40;60.50
56538;DHT22;42435;53.292;6.000;2023-06-05T09:00:53;17.40;60.30
56538;DHT22;42435;53.292;6.000;2023-06-05T09:03:19;17.50;60.50
56538;DHT22;42435;53.292;6.000;2023-06-05T09:05:46;17.60;60.30
56538;DHT22;42435;53.292;6.000;2023-06-05T09:08:14;17.70;60.30
56538;DHT22;42435;53.292;6.000;2023-06-05T09:10:40;17.70;60.00
56538;DHT22;42435;53.292;6.000;2023-06-05T09:13:06;17.70;59.80
56538;DHT22;42435;53.292;6.000;2023-06-05T09:15:34;17.70;59.50
56538;DHT22;42435;53.292;6.000;2023-06-05T09:18:10;17.80;59.10
56538;DHT22;42435;53.292;6.000;2023-06-05T09:20:38;17.80;59.00
56538;DHT22;42435;53.292;6.000;2023-06-05T09:23:24;17.90;58.80
56538;DHT22;42435;53.292;6.000;2023-06-05T09:25:52;18.00;58.40
56538;DHT22;42435;53.292;6.000;2023-06-05T09:28:19;18.10;58.90
56538;DHT22;42435;53.292;6.000;2023-06-05T09:33:25;18.40;58.80
56538;DHT22;42435;53.292;6.000;2023-06-05T09:36:05;18.60;58.30
56538;DHT22;42435;53.292;6.000;2023-06-05T09:38:32;18.80;58.20
56538;DHT22;42435;53.292;6.000;2023-06-05T09:41:05;18.90;58.00
56538;DHT22;42435;53.292;6.000;2023-06-05T09:43:30;19.10;56.90
56538;DHT22;42435;53.292;6.000;2023-06-05T09:45:56;19.30;56.40
56538;DHT22;42435;53.292;6.000;2023-06-05T09:48:21;19.40;56.30
56538;DHT22;42435;53.292;6.000;2023-06-05T09:50:47;19.60;55.10
56538;DHT22;42435;53.292;6.000;2023-06-05T09:53:15;19.90;55.00
56538;DHT22;42435;53.292;6.000;2023-06-05T09:55:44;20.00;54.40
56538;DHT22;42435;53.292;6.000;2023-06-05T09:58:12;20.40;54.10
56538;DHT22;42435;53.292;6.000;2023-06-05T10:00:40;20.70;53.80
56538;DHT22;42435;53.292;6.000;2023-06-05T10:03:14;21.00;53.10
56538;DHT22;42435;53.292;6.000;2023-06-05T10:05:43;21.20;52.50
56538;DHT22;42435;53.292;6.000;2023-06-05T10:08:11;21.40;51.70
56538;DHT22;42435;53.292;6.000;2023-06-05T10:10:38;21.50;51.00
56538;DHT22;42435;53.292;6.000;2023-06-05T10:13:05;21.50;51.40
56538;DHT22;42435;53.292;6.000;2023-06-05T10:15:32;21.60;51.50
56538;DHT22;42435;53.292;6.000;2023-06-05T10:17:57;21.70;50.40
56538;DHT22;42435;53.292;6.000;2023-06-05T10:20:24;21.70;49.80
56538;DHT22;42435;53.292;6.000;2023-06-05T10:22:50;21.80;49.50
56538;DHT22;42435;53.292;6.000;2023-06-05T10:25:17;21.90;48.90
56538;DHT22;42435;53.292;6.000;2023-06-05T10:33:21;22.00;49.00
56538;DHT22;42435;53.292;6.000;2023-06-05T10:35:59;22.10;49.30
56538;DHT22;42435;53.292;6.000;2023-06-05T10:38:28;22.20;47.70
56538;DHT22;42435;53.292;6.000;2023-06-05T10:41:00;22.20;47.80
56538;DHT22;42435;53.292;6.000;2023-06-05T10:43:35;22.30;47.60
56538;DHT22;42435;53.292;6.000;2023-06-05T10:46:02;22.40;48.30
56538;DHT22;42435;53.292;6.000;2023-06-05T10:49:06;22.50;48.90
56538;DHT22;42435;53.292;6.000;2023-06-05T10:51:36;22.80;48.50
56538;DHT22;42435;53.292;6.000;2023-06-05T10:54:03;22.90;47.90
56538;DHT22;42435;53.292;6.000;2023-06-05T10:56:55;23.10;47.70
56538;DHT22;42435;53.292;6.000;2023-06-05T10:59:32;23.20;47.00
56538;DHT22;42435;53.292;6.000;2023-06-05T11:12:27;23.50;47.50
56538;DHT22;42435;53.292;6.000;2023-06-05T11:17:46;23.30;46.40
56538;DHT22;42435;53.292;6.000;2023-06-05T11:27:54;23.20;46.40
56538;DHT22;42435;53.292;6.000;2023-06-05T11:30:25;23.20;45.90
56538;DHT22;42435;53.292;6.000;2023-06-05T11:32:52;23.30;45.80
56538;DHT22;42435;53.292;6.000;2023-06-05T11:35:25;23.30;46.30
56538;DHT22;42435;53.292;6.000;2023-06-05T11:40:41;23.40;45.40
56538;DHT22;42435;53.292;6.000;2023-06-05T11:43:09;23.30;45.50
56538;DHT22;42435;53.292;6.000;2023-06-05T11:45:37;23.20;45.50
56538;DHT22;42435;53.292;6.000;2023-06-05T11:48:06;23.10;46.00
56538;DHT22;42435;53.292;6.000;2023-06-05T11:50:32;22.90;45.80
56538;DHT22;42435;53.292;6.000;2023-06-05T11:53:08;22.70;46.40
56538;DHT22;42435;53.292;6.000;2023-06-05T11:55:35;22.70;46.40
56538;DHT22;42435;53.292;6.000;2023-06-05T11:58:27;22.80;46.80
56538;DHT22;42435;53.292;6.000;2023-06-05T12:01:22;22.90;47.30
56538;DHT22;42435;53.292;6.000;2023-06-05T12:04:06;22.80;46.80
56538;DHT22;42435;53.292;6.000;2023-06-05T12:06:39;22.70;46.70
56538;DHT22;42435;53.292;6.000;2023-06-05T12:09:11;22.60;46.80
56538;DHT22;42435;53.292;6.000;2023-06-05T12:11:38;22.50;47.00
56538;DHT22;42435;53.292;6.000;2023-06-05T12:14:04;22.50;47.00
56538;DHT22;42435;53.292;6.000;2023-06-05T12:16:44;22.50;46.60
56538;DHT22;42435;53.292;6.000;2023-06-05T12:21:38;22.30;47.40
56538;DHT22;42435;53.292;6.000;2023-06-05T12:24:05;22.40;47.80
56538;DHT22;42435;53.292;6.000;2023-06-05T12:26:57;22.40;47.40
56538;DHT22;42435;53.292;6.000;2023-06-05T12:29:35;22.40;47.50
56538;DHT22;42435;53.292;6.000;2023-06-05T12:32:25;22.40;48.30
56538;DHT22;42435;53.292;6.000;2023-06-05T12:34:54;22.50;47.60
56538;DHT22;42435;53.292;6.000;2023-06-05T12:37:27;22.50;47.30
56538;DHT22;42435;53.292;6.000;2023-06-05T12:40:01;22.50;47.10
56538;DHT22;42435;53.292;6.000;2023-06-05T12:42:27;22.30;47.60
56538;DHT22;42435;53.292;6.000;2023-06-05T12:44:54;22.20;47.00
56538;DHT22;42435;53.292;6.000;2023-06-05T12:47:20;22.00;47.60
56538;DHT22;42435;53.292;6.000;2023-06-05T12:49:46;21.90;47.90
56538;DHT22;42435;53.292;6.000;2023-06-05T12:52:12;21.90;47.90
56538;DHT22;42435;53.292;6.000;2023-06-05T12:54:38;21.90;47.30
56538;DHT22;42435;53.292;6.000;2023-06-05T12:57:04;21.90;47.90
56538;DHT22;42435;53.292;6.000;2023-06-05T12:59:33;21.90;47.70
56538;DHT22;42435;53.292;6.000;2023-06-05T13:02:01;21.90;47.90
56538;DHT22;42435;53.292;6.000;2023-06-05T13:04:26;21.90;48.40
56538;DHT22;42435;53.292;6.000;2023-06-05T13:06:56;21.80;48.50
56538;DHT22;42435;53.292;6.000;2023-06-05T13:09:26;21.70;49.30
56538;DHT22;42435;53.292;6.000;2023-06-05T13:11:52;21.80;49.40
56538;DHT22;42435;53.292;6.000;2023-06-05T13:14:17;21.90;48.50
56538;DHT22;42435;53.292;6.000;2023-06-05T13:16:43;21.90;47.80
56538;DHT22;42435;53.292;6.000;2023-06-05T13:19:08;21.90;47.80
56538;DHT22;42435;53.292;6.000;2023-06-05T13:21:34;22.00;48.00
56538;DHT22;42435;53.292;6.000;2023-06-05T13:24:00;22.00;47.70
56538;DHT22;42435;53.292;6.000;2023-06-05T13:26:25;22.00;47.60
56538;DHT22;42435;53.292;6.000;2023-06-05T13:28:54;22.00;47.70
56538;DHT22;42435;53.292;6.000;2023-06-05T13:31:20;22.00;48.00
56538;DHT22;42435;53.292;6.000;2023-06-05T13:33:45;22.00;47.40
56538;DHT22;42435;53.292;6.000;2023-06-05T13:36:11;21.90;47.50
56538;DHT22;42435;53.292;6.000;2023-06-05T13:38:38;21.90;47.40
56538;DHT22;42435;53.292;6.000;2023-06-05T13:41:04;21.90;47.50
56538;DHT22;42435;53.292;6.000;2023-06-05T13:43:31;21.80;47.50
56538;DHT22;42435;53.292;6.000;2023-06-05T13:45:57;21.60;47.80
56538;DHT22;42435;53.292;6.000;2023-06-05T13:48:23;21.60;48.10
56538;DHT22;42435;53.292;6.000;2023-06-05T13:50:53;21.60;47.90
56538;DHT22;42435;53.292;6.000;2023-06-05T13:53:19;21.50;48.00
56538;DHT22;42435;53.292;6.000;2023-06-05T13:55:44;21.60;48.20
56538;DHT22;42435;53.292;6.000;2023-06-05T13:58:13;21.60;48.70
56538;DHT22;42435;53.292;6.000;2023-06-05T14:00:39;21.70;48.30
56538;DHT22;42435;53.292;6.000;2023-06-05T14:03:04;21.80;47.90
56538;DHT22;42435;53.292;6.000;2023-06-05T14:05:31;21.70;47.90
56538;DHT22;42435;53.292;6.000;2023-06-05T14:08:04;21.60;48.40
56538;DHT22;42435;53.292;6.000;2023-06-05T14:10:29;21.60;48.70
56538;DHT22;42435;53.292;6.000;2023-06-05T14:12:55;21.60;48.30
56538;DHT22;42435;53.292;6.000;2023-06-05T14:15:21;21.50;48.30
56538;DHT22;42435;53.292;6.000;2023-06-05T14:17:49;21.50;48.10
56538;DHT22;42435;53.292;6.000;2023-06-05T14:20:18;21.50;47.80
56538;DHT22;42435;53.292;6.000;2023-06-05T14:22:44;21.40;47.80
56538;DHT22;42435;53.292;6.000;2023-06-05T14:25:10;21.10;48.20
56538;DHT22;42435;53.292;6.000;2023-06-05T14:27:36;21.00;48.50
56538;DHT22;42435;53.292;6.000;2023-06-05T14:30:02;20.90;48.70
56538;DHT22;42435;53.292;6.000;2023-06-05T14:32:28;20.90;49.00
56538;DHT22;42435;53.292;6.000;2023-06-05T14:34:56;20.90;48.80
56538;DHT22;42435;53.292;6.000;2023-06-05T14:37:22;20.90;48.60
56538;DHT22;42435;53.292;6.000;2023-06-05T14:39:47;20.80;48.70
56538;DHT22;42435;53.292;6.000;2023-06-05T14:42:19;20.70;48.80
56538;DHT22;42435;53.292;6.000;2023-06-05T14:44:44;20.70;49.10
56538;DHT22;42435;53.292;6.000;2023-06-05T14:47:10;20.70;49.20
56538;DHT22;42435;53.292;6.000;2023-06-05T14:49:36;20.70;49.30
56538;DHT22;42435;53.292;6.000;2023-06-05T14:52:06;20.70;49.70
56538;DHT22;42435;53.292;6.000;2023-06-05T14:54:33;20.70;49.90
56538;DHT22;42435;53.292;6.000;2023-06-05T14:57:00;20.80;49.30
56538;DHT22;42435;53.292;6.000;2023-06-05T14:59:29;20.90;49.40
56538;DHT22;42435;53.292;6.000;2023-06-05T15:01:56;20.90;49.30
56538;DHT22;42435;53.292;6.000;2023-06-05T15:04:21;20.90;49.50
56538;DHT22;42435;53.292;6.000;2023-06-05T15:06:48;21.00;49.40
56538;DHT22;42435;53.292;6.000;2023-06-05T15:09:20;21.00;49.30
56538;DHT22;42435;53.292;6.000;2023-06-05T15:11:46;21.00;48.80
56538;DHT22;42435;53.292;6.000;2023-06-05T15:14:12;20.90;48.40
56538;DHT22;42435;53.292;6.000;2023-06-05T15:16:38;20.80;48.60
56538;DHT22;42435;53.292;6.000;2023-06-05T15:19:04;20.80;49.00
56538;DHT22;42435;53.292;6.000;2023-06-05T15:21:30;20.70;49.40
56538;DHT22;42435;53.292;6.000;2023-06-05T15:23:55;20.70;49.40
56538;DHT22;42435;53.292;6.000;2023-06-05T15:26:22;20.70;49.30
56538;DHT22;42435;53.292;6.000;2023-06-05T15:28:48;20.60;49.70
56538;DHT22;42435;53.292;6.000;2023-06-05T15:31:13;20.50;50.10
56538;DHT22;42435;53.292;6.000;2023-06-05T15:33:42;20.50;50.10
56538;DHT22;42435;53.292;6.000;2023-06-05T15:36:07;20.50;50.00
56538;DHT22;42435;53.292;6.000;2023-06-05T15:38:34;20.50;50.00
56538;DHT22;42435;53.292;6.000;2023-06-05T15:41:00;20.40;50.00
56538;DHT22;42435;53.292;6.000;2023-06-05T15:43:25;20.30;49.70
56538;DHT22;42435;53.292;6.000;2023-06-05T15:45:54;20.20;49.70
56538;DHT22;42435;53.292;6.000;2023-06-05T15:48:21;20.10;49.80
56538;DHT22;42435;53.292;6.000;2023-06-05T15:50:47;20.00;49.80
56538;DHT22;42435;53.292;6.000;2023-06-05T15:53:14;19.90;50.40
56538;DHT22;42435;53.292;6.000;2023-06-05T15:55:40;19.80;50.80
56538;DHT22;42435;53.292;6.000;2023-06-05T15:58:08;19.90;50.90
56538;DHT22;42435;53.292;6.000;2023-06-05T16:00:34;19.90;50.70
56538;DHT22;42435;53.292;6.000;2023-06-05T16:03:00;19.90;50.60
56538;DHT22;42435;53.292;6.000;2023-06-05T16:05:25;19.80;50.40
56538;DHT22;42435;53.292;6.000;2023-06-05T16:07:52;19.60;51.00
56538;DHT22;42435;53.292;6.000;2023-06-05T16:10:18;19.60;50.70